Dades meteomassalio
Diari Summary for Gener 23, 2018 Units:  English    Metric   Both
« Previous Day
Next Day »
Diari Semanal Mensual Anual Personalitzat
  Maxima: Minima: Mijana:
Temperatura: TemperatureC °F 4.4 °F 11.1 °F
Rosada: DewpointC °F 1.5 °F 6.4 °F
Humitat: Humidity % 60 % 73 %
Velocitat del vent: WindSpeedKMH mph 0.0 mph 10.7 mph
Racha vent: WindSpeedGustKMH mph - -
Vent:- - WNW
Pressio: PressurehPa in 1028.7 in -
Pluja: 0.0 in    
Historical Graphs
 
 
Tabular Data for Gener 23, 2018
Time Temperature Dew Point Pressure Wind Wind Speed Wind Gust Humidity Rainfall Rate (Hourly) solar Conditions
TemperatureC °F DewpointC °F PressurehPa in Calm     Humidity % HourlyPrecipMM in SolarRadiationWatts/m^2 W/m2 Conditions
00:00 13.3 °F 8.2 °F 1029.3 in NW 29.0 mph 29.0 mph 71 % 0.0 in 0.0 W/m2 CLR
00:05 12.8 °F 7.7 °F 1029.7 in NW 24.1 mph 24.1 mph 71 % 0.0 in 0.0 W/m2 CLR
00:10 12.8 °F 7.8 °F 1029.7 in NW 24.1 mph 24.1 mph 72 % 0.0 in 0.0 W/m2 CLR
00:15 12.8 °F 7.8 °F 1029.7 in NW 24.1 mph 24.1 mph 72 % 0.0 in 0.0 W/m2 CLR
00:20 12.8 °F 7.8 °F 1029.7 in WNW 22.2 mph 22.2 mph 72 % 0.0 in 0.0 W/m2 CLR
00:25 12.2 °F 7.3 °F 1029.7 in NNW 22.2 mph 22.2 mph 72 % 0.0 in 0.0 W/m2 CLR
00:30 12.2 °F 7.3 °F 1030.0 in NNW 13.0 mph 13.0 mph 72 % 0.0 in 0.0 W/m2 CLR
00:35 12.8 °F 7.8 °F 1030.0 in Calm     72 % 0.0 in 0.0 W/m2 CLR
00:40 12.2 °F 7.3 °F 1029.7 in WNW 14.8 mph 14.8 mph 72 % 0.0 in 0.0 W/m2 CLR
00:45 12.2 °F 7.5 °F 1029.7 in NW 24.1 mph 24.1 mph 73 % 0.0 in 0.0 W/m2 CLR
00:51 12.8 °F 7.8 °F 1029.7 in WNW 22.2 mph 22.2 mph 72 % 0.0 in 0.0 W/m2 CLR
00:56 12.8 °F 7.8 °F 1029.7 in NW 20.4 mph 20.4 mph 72 % 0.0 in 0.0 W/m2 CLR
01:01 12.8 °F 7.8 °F 1029.7 in NW 29.6 mph 29.6 mph 72 % 0.0 in 0.0 W/m2 CLR
01:06 12.8 °F 7.8 °F 1029.7 in NW 22.2 mph 22.2 mph 72 % 0.0 in 0.0 W/m2 CLR
01:11 12.8 °F 7.8 °F 1029.3 in NW 33.3 mph 33.3 mph 72 % 0.0 in 0.0 W/m2 CLR
01:16 12.8 °F 7.8 °F 1029.3 in NW 22.5 mph 22.5 mph 72 % 0.0 in 0.0 W/m2 CLR
01:21 12.8 °F 7.8 °F 1029.3 in WNW 22.2 mph 22.2 mph 72 % 0.0 in 0.0 W/m2 CLR
01:26 12.8 °F 8.1 °F 1029.3 in NW 18.5 mph 18.5 mph 73 % 0.0 in 0.0 W/m2 CLR
01:31 12.8 °F 8.1 °F 1029.3 in WSW 18.5 mph 18.5 mph 73 % 0.0 in 0.0 W/m2 CLR
01:36 12.8 °F 8.1 °F 1029.3 in Calm     73 % 0.0 in 0.0 W/m2 CLR
01:41 12.2 °F 7.5 °F 1029.3 in SW 1.9 mph   73 % 0.0 in 0.0 W/m2 CLR
01:46 12.2 °F 7.7 °F 1029.3 in Calm     74 % 0.0 in 0.0 W/m2 CLR
02:01 11.7 °F 7.2 °F 1029.0 in WNW 16.7 mph 16.7 mph 74 % 0.0 in 0.0 W/m2 CLR
02:06 11.7 °F 7.0 °F 1029.3 in NW 20.4 mph 20.4 mph 73 % 0.0 in 0.0 W/m2 CLR
02:11 11.7 °F 7.0 °F 1029.3 in NW 11.3 mph 11.3 mph 73 % 0.0 in 0.0 W/m2 CLR
02:16 11.7 °F 7.0 °F 1029.3 in NW 16.7 mph 16.7 mph 73 % 0.0 in 0.0 W/m2 CLR
02:21 11.1 °F 6.4 °F 1029.0 in WNW 1.9 mph 1.9 mph 73 % 0.0 in 0.0 W/m2 CLR
02:26 11.1 °F 6.4 °F 1029.0 in WNW 3.7 mph 3.7 mph 73 % 0.0 in 0.0 W/m2 CLR
02:31 11.1 °F 6.7 °F 1029.0 in WNW 9.3 mph 9.3 mph 74 % 0.0 in 0.0 W/m2 CLR
02:36 11.1 °F 6.7 °F 1029.0 in West 13.0 mph 13.0 mph 74 % 0.0 in 0.0 W/m2 CLR
02:41 11.1 °F 6.7 °F 1029.0 in NW 14.8 mph 14.8 mph 74 % 0.0 in 0.0 W/m2 CLR
02:46 11.1 °F 6.7 °F 1029.0 in West 11.3 mph 11.3 mph 74 % 0.0 in 0.0 W/m2 CLR
02:51 11.1 °F 6.7 °F 1029.0 in West 13.0 mph 13.0 mph 74 % 0.0 in 0.0 W/m2 CLR
02:56 11.1 °F 6.7 °F 1029.0 in WSW 14.8 mph 14.8 mph 74 % 0.0 in 0.0 W/m2 CLR
03:01 11.7 °F 7.4 °F 1029.0 in WNW 11.1 mph 11.1 mph 75 % 0.0 in 0.0 W/m2 CLR
03:06 11.1 °F 6.8 °F 1029.0 in WNW 14.8 mph 14.8 mph 75 % 0.0 in 0.0 W/m2 CLR
03:11 11.1 °F 6.8 °F 1029.0 in WNW 16.7 mph 16.7 mph 75 % 0.0 in 0.0 W/m2 CLR
03:16 10.6 °F 6.3 °F 1029.0 in NW 12.9 mph 12.9 mph 75 % 0.0 in 0.0 W/m2 CLR
03:21 10.6 °F 6.3 °F 1029.0 in WNW 16.1 mph 16.1 mph 75 % 0.0 in 0.0 W/m2 CLR
03:26 10.6 °F 6.3 °F 1029.0 in WNW 14.8 mph 14.8 mph 75 % 0.0 in 0.0 W/m2 CLR
03:31 10.6 °F 6.3 °F 1029.0 in West 7.4 mph 7.4 mph 75 % 0.0 in 0.0 W/m2 CLR
03:46 10.0 °F 5.8 °F 1028.7 in West 5.6 mph 5.6 mph 75 % 0.0 in 0.0 W/m2 CLR
03:51 10.0 °F 5.9 °F 1028.7 in West 14.8 mph 14.8 mph 76 % 0.0 in 0.0 W/m2 CLR
03:56 10.0 °F 5.9 °F 1028.7 in WNW 16.7 mph 16.7 mph 76 % 0.0 in 0.0 W/m2 CLR
04:01 10.0 °F 5.8 °F 1028.7 in WNW 13.0 mph 13.0 mph 75 % 0.0 in 0.0 W/m2 CLR
04:16 11.1 °F 6.8 °F 1028.7 in WNW 22.2 mph 22.2 mph 75 % 0.0 in 0.0 W/m2 CLR
04:21 11.1 °F 6.7 °F 1028.7 in NW 14.8 mph 14.8 mph 74 % 0.0 in 0.0 W/m2 CLR
04:26 11.1 °F 6.8 °F 1029.0 in WNW 18.5 mph 18.5 mph 75 % 0.0 in 0.0 W/m2 CLR
04:31 11.1 °F 6.7 °F 1029.0 in WNW 11.1 mph 11.1 mph 74 % 0.0 in 0.0 W/m2 CLR
04:36 10.6 °F 6.1 °F 1029.0 in NW 16.7 mph 16.7 mph 74 % 0.0 in 0.0 W/m2 CLR
04:41 10.6 °F 6.3 °F 1029.0 in NW 14.8 mph 14.8 mph 75 % 0.0 in 0.0 W/m2 CLR
04:51 10.6 °F 6.3 °F 1029.0 in WNW 11.1 mph 11.1 mph 75 % 0.0 in 0.0 W/m2 CLR
04:56 10.0 °F 5.8 °F 1029.0 in West 9.3 mph 9.3 mph 75 % 0.0 in 0.0 W/m2 CLR
05:01 9.4 °F 5.4 °F 1029.0 in West 9.3 mph 9.3 mph 76 % 0.0 in 0.0 W/m2 CLR
05:06 8.9 °F 5.1 °F 1029.0 in West 8.0 mph 8.0 mph 77 % 0.0 in 0.0 W/m2 CLR
05:11 8.9 °F 5.1 °F 1029.0 in WNW 11.1 mph 11.1 mph 77 % 0.0 in 0.0 W/m2 CLR
05:16 8.3 °F 4.6 °F 1029.0 in WNW 11.3 mph 11.3 mph 77 % 0.0 in 0.0 W/m2 CLR
05:21 8.3 °F 4.7 °F 1029.0 in West 9.7 mph 9.7 mph 78 % 0.0 in 0.0 W/m2 CLR
05:26 8.3 °F 4.7 °F 1029.0 in West 5.6 mph 5.6 mph 78 % 0.0 in 0.0 W/m2 CLR
05:31 8.3 °F 4.7 °F 1029.0 in West 9.3 mph   78 % 0.0 in 0.0 W/m2 CLR
05:36 8.3 °F 4.7 °F 1029.0 in West 7.4 mph 7.4 mph 78 % 0.0 in 0.0 W/m2 CLR
05:41 7.8 °F 4.4 °F 1029.0 in West 18.5 mph 18.5 mph 79 % 0.0 in 0.0 W/m2 CLR
05:46 7.8 °F 4.4 °F 1029.0 in West 5.6 mph 5.6 mph 79 % 0.0 in 0.0 W/m2 CLR
05:51 7.8 °F 4.2 °F 1029.3 in WNW 1.9 mph   78 % 0.0 in 0.0 W/m2 CLR
05:56 7.2 °F 3.7 °F 1029.3 in Calm     78 % 0.0 in 0.0 W/m2 CLR
06:01 6.7 °F 3.3 °F 1029.3 in West 6.4 mph 6.4 mph 79 % 0.0 in 0.0 W/m2 CLR
06:06 6.7 °F 3.3 °F 1029.3 in West 3.7 mph 3.7 mph 79 % 0.0 in 0.0 W/m2 CLR
06:11 6.7 °F 3.3 °F 1029.3 in WNW 7.4 mph 7.4 mph 79 % 0.0 in 0.0 W/m2 CLR
06:21 6.1 °F 2.6 °F 1029.3 in West 3.7 mph 3.7 mph 78 % 0.0 in 0.0 W/m2 CLR
06:26 5.6 °F 2.2 °F 1029.3 in Calm     79 % 0.0 in 0.0 W/m2 CLR
06:31 5.6 °F 2.2 °F 1029.3 in Calm     79 % 0.0 in 0.0 W/m2 CLR
06:36 5.6 °F 2.2 °F 1029.3 in Calm     79 % 0.0 in 0.0 W/m2 CLR
06:46 5.6 °F 2.4 °F 1029.7 in Calm     80 % 0.0 in 0.0 W/m2 CLR
06:51 5.6 °F 2.6 °F 1029.7 in West 1.9 mph 1.9 mph 81 % 0.0 in 0.0 W/m2 CLR
06:56 5.6 °F 2.4 °F 1029.7 in Calm     80 % 0.0 in 0.0 W/m2 CLR
07:01 5.6 °F 2.4 °F 1029.3 in Calm     80 % 0.0 in 0.0 W/m2 CLR
07:06 6.1 °F 3.1 °F 1029.3 in WNW 5.6 mph 5.6 mph 81 % 0.0 in 0.0 W/m2 CLR
07:11 6.1 °F 3.1 °F 1029.3 in WNW 6.4 mph 6.4 mph 81 % 0.0 in 0.0 W/m2 CLR
07:21 6.1 °F 2.6 °F 1029.7 in WNW 3.7 mph 3.7 mph 78 % 0.0 in 0.0 W/m2 CLR
07:26 6.1 °F 2.6 °F 1029.7 in WNW 11.1 mph 11.1 mph 78 % 0.0 in 0.0 W/m2 CLR
07:36 5.6 °F 1.8 °F 1029.7 in WNW 5.6 mph 5.6 mph 77 % 0.0 in 0.0 W/m2 CLR
07:41 5.6 °F 1.8 °F 1029.7 in Calm     77 % 0.0 in 0.0 W/m2 CLR
07:46 5.6 °F 1.8 °F 1029.7 in Calm     77 % 0.0 in 0.0 W/m2 CLR
07:51 5.6 °F 2.0 °F 1029.7 in Calm   0.5 mph 78 % 0.0 in 0.0 W/m2 CLR
08:07 5.6 °F 2.2 °F 1029.7 in West 1.9 mph   79 % 0.0 in 0.0 W/m2 CLR
08:17 5.0 °F 1.8 °F 1029.7 in West 9.3 mph 9.3 mph 80 % 0.0 in 7.0 W/m2 OVC
08:22 5.0 °F 1.7 °F 1029.7 in WNW 5.6 mph 5.6 mph 79 % 0.0 in 11.0 W/m2 BKN
08:27 5.0 °F 1.7 °F 1029.7 in Calm     79 % 0.0 in 14.0 W/m2 BKN
08:32 5.0 °F 1.5 °F 1030.0 in Calm     78 % 0.0 in 19.0 W/m2 BKN
08:37 5.0 °F 1.7 °F 1030.0 in Calm     79 % 0.0 in 25.0 W/m2 BKN
08:38 5.0 °F 1.7 °F 1030.0 in Calm     79 % 0.0 in 28.0 W/m2 BKN
08:43 5.6 °F 2.6 °F 1030.0 in West 5.6 mph 5.6 mph 81 % 0.0 in 37.0 W/m2 BKN
08:48 5.6 °F 2.7 °F 1030.0 in WNW 11.1 mph 11.1 mph 82 % 0.0 in 51.0 W/m2 SCT
08:53 6.1 °F 3.1 °F 1030.0 in West 7.4 mph 7.4 mph 81 % 0.0 in 70.0 W/m2 FEW
08:58 6.7 °F 3.4 °F 1030.0 in Calm     80 % 0.0 in 76.0 W/m2 FEW
09:08 7.2 °F 3.8 °F 1030.0 in West 7.4 mph 7.4 mph 79 % 0.0 in 93.0 W/m2 CLR
09:13 7.2 °F 3.7 °F 1030.0 in WNW 7.4 mph 7.4 mph 78 % 0.0 in 105.0 W/m2 CLR
09:18 7.8 °F 4.0 °F 1030.0 in West 13.0 mph 13.0 mph 77 % 0.0 in 104.0 W/m2 CLR
09:23 8.3 °F 4.3 °F 1030.4 in West 11.1 mph 11.1 mph 76 % 0.0 in 118.0 W/m2 CLR
09:28 8.9 °F 4.7 °F 1030.4 in WNW 14.8 mph 14.8 mph 75 % 0.0 in 127.0 W/m2 CLR
09:33 9.4 °F 5.2 °F 1030.4 in WNW 14.8 mph 14.8 mph 75 % 0.0 in 135.0 W/m2 CLR
09:39 10.6 °F 5.9 °F 1030.4 in West 13.0 mph 13.0 mph 73 % 0.0 in 144.0 W/m2 CLR
09:44 11.7 °F 7.0 °F 1030.4 in West 16.7 mph 16.7 mph 73 % 0.0 in 141.0 W/m2 CLR
09:49 12.2 °F 7.5 °F 1030.7 in WNW 14.8 mph 14.8 mph 73 % 0.0 in 163.0 W/m2 CLR
09:54 12.8 °F 7.8 °F 1030.4 in NNW 9.3 mph 9.3 mph 72 % 0.0 in 204.0 W/m2 CLR
09:59 13.3 °F 8.2 °F 1030.7 in WNW 14.8 mph 14.8 mph 71 % 0.0 in 167.0 W/m2 CLR
10:05 13.3 °F 8.0 °F 1030.7 in NW 11.1 mph 11.1 mph 70 % 0.0 in 158.0 W/m2 CLR
10:10 13.9 °F 8.3 °F 1030.7 in WNW 20.9 mph 20.9 mph 69 % 0.0 in 156.0 W/m2 CLR
10:15 13.9 °F 8.3 °F 1030.7 in WNW 29.6 mph 29.6 mph 69 % 0.0 in 186.0 W/m2 CLR
10:20 13.9 °F 8.3 °F 1030.7 in West 14.8 mph 14.8 mph 69 % 0.0 in 160.0 W/m2 CLR
10:25 13.9 °F 8.3 °F 1031.0 in NW 11.1 mph 11.1 mph 69 % 0.0 in 155.0 W/m2 CLR
10:40 13.9 °F 8.1 °F 1031.0 in WNW 22.2 mph 22.2 mph 68 % 0.0 in 163.0 W/m2 CLR
10:45 13.9 °F 8.1 °F 1031.0 in West 14.8 mph 14.8 mph 68 % 0.0 in 165.0 W/m2 CLR
10:50 14.4 °F 8.6 °F 1031.0 in WNW 18.5 mph 18.5 mph 68 % 0.0 in 165.0 W/m2 CLR
10:55 14.4 °F 8.6 °F 1031.0 in WNW 22.2 mph 22.2 mph 68 % 0.0 in 165.0 W/m2 CLR
11:00 14.4 °F 8.6 °F 1031.0 in West 7.4 mph 7.4 mph 68 % 0.0 in 167.0 W/m2 CLR
11:05 14.4 °F 8.4 °F 1031.0 in NW 18.5 mph 18.5 mph 67 % 0.0 in 183.0 W/m2 CLR
11:10 14.4 °F 8.4 °F 1031.4 in West 24.1 mph 24.1 mph 67 % 0.0 in 165.0 W/m2 CLR
11:15 14.4 °F 8.4 °F 1031.4 in WNW 22.2 mph 22.2 mph 67 % 0.0 in 165.0 W/m2 CLR
11:20 14.4 °F 8.6 °F 1031.4 in NW 22.2 mph 22.2 mph 68 % 0.0 in 144.0 W/m2 CLR
11:25 14.4 °F 8.6 °F 1031.0 in NW 18.5 mph 18.5 mph 68 % 0.0 in 151.0 W/m2 CLR
11:30 14.4 °F 8.6 °F 1031.4 in NW 17.7 mph 17.7 mph 68 % 0.0 in 216.0 W/m2 CLR
11:35 15.0 °F 9.1 °F 1031.0 in WNW 20.4 mph 20.4 mph 68 % 0.0 in 227.0 W/m2 CLR
11:40 15.0 °F 8.9 °F 1031.0 in WNW 18.5 mph 18.5 mph 67 % 0.0 in 171.0 W/m2 CLR
11:45 15.0 °F 8.9 °F 1031.0 in NW 25.9 mph 25.9 mph 67 % 0.0 in 251.0 W/m2 CLR
11:50 15.0 °F 8.9 °F 1031.0 in WNW 22.2 mph 22.2 mph 67 % 0.0 in 216.0 W/m2 CLR
11:55 15.0 °F 8.9 °F 1031.0 in NW 18.5 mph 18.5 mph 67 % 0.0 in 241.0 W/m2 CLR
12:05 15.6 °F 9.4 °F 1031.0 in NW 14.5 mph 14.5 mph 67 % 0.0 in 278.0 W/m2 CLR
12:20 15.6 °F 9.0 °F 1031.0 in WNW 22.5 mph 22.5 mph 65 % 0.0 in 343.0 W/m2 CLR
12:25 15.6 °F 9.2 °F 1030.7 in NNW 18.5 mph 18.5 mph 66 % 0.0 in 339.0 W/m2 CLR
12:40 15.6 °F 9.0 °F 1030.7 in North 31.5 mph 31.5 mph 65 % 0.0 in 246.0 W/m2 CLR
12:45 15.6 °F 9.2 °F 1030.7 in NW 16.7 mph 16.7 mph 66 % 0.0 in 246.0 W/m2 CLR
12:50 15.6 °F 9.0 °F 1030.4 in NNW 31.5 mph 31.5 mph 65 % 0.0 in 346.0 W/m2 CLR
12:55 16.1 °F 9.5 °F 1030.4 in NNW 22.2 mph 22.2 mph 65 % 0.0 in 418.0 W/m2 CLR
13:00 16.1 °F 9.5 °F 1030.4 in NNW 30.6 mph 30.6 mph 65 % 0.0 in 279.0 W/m2 CLR
13:05 16.1 °F 9.5 °F 1030.4 in North 22.2 mph 22.2 mph 65 % 0.0 in 346.0 W/m2 CLR
13:10 16.7 °F 9.8 °F 1030.4 in North 27.8 mph 27.8 mph 64 % 0.0 in 628.0 W/m2 CLR
13:15 17.2 °F 10.1 °F 1030.0 in NNW 31.5 mph 31.5 mph 63 % 0.0 in 271.0 W/m2 CLR
13:20 16.7 °F 9.6 °F 1030.0 in North 27.8 mph 27.8 mph 63 % 0.0 in 285.0 W/m2 CLR
13:25 16.1 °F 9.3 °F 1030.0 in North 25.9 mph 25.9 mph 64 % 0.0 in 587.0 W/m2 CLR
13:30 16.7 °F 9.8 °F 1030.0 in North 27.8 mph 27.8 mph 64 % 0.0 in 278.0 W/m2 CLR
13:35 17.2 °F 10.3 °F 1030.0 in NNW 22.2 mph 22.2 mph 64 % 0.0 in 390.0 W/m2 CLR
13:40 16.7 °F 9.8 °F 1029.7 in NW 16.1 mph 16.1 mph 64 % 0.0 in 613.0 W/m2 CLR
13:45 17.2 °F 10.1 °F 1029.7 in North 22.2 mph 22.2 mph 63 % 0.0 in 582.0 W/m2 CLR
13:55 17.8 °F 10.2 °F 1029.3 in North 25.9 mph 25.9 mph 61 % 0.0 in 524.0 W/m2 CLR
14:10 17.8 °F 10.4 °F 1029.3 in North 27.8 mph 27.8 mph 62 % 0.0 in 517.0 W/m2 CLR
14:15 17.2 °F 9.6 °F 1029.3 in NNE 22.2 mph 22.2 mph 61 % 0.0 in 492.0 W/m2 CLR
14:20 17.8 °F 10.2 °F 1029.3 in NNW 24.1 mph 24.1 mph 61 % 0.0 in 478.0 W/m2 CLR
14:30 17.2 °F 9.4 °F 1029.0 in North 27.8 mph 27.8 mph 60 % 0.0 in 343.0 W/m2 CLR
14:35 17.2 °F 9.9 °F 1029.0 in North 27.8 mph 27.8 mph 62 % 0.0 in 355.0 W/m2 CLR
14:40 17.2 °F 9.9 °F 1029.0 in NNE 20.9 mph 20.9 mph 62 % 0.0 in 343.0 W/m2 CLR
14:45 17.2 °F 9.9 °F 1029.0 in NW 14.8 mph 14.8 mph 62 % 0.0 in 330.0 W/m2 CLR
14:50 17.2 °F 9.9 °F 1029.0 in North 25.9 mph 25.9 mph 62 % 0.0 in 323.0 W/m2 CLR
14:55 16.7 °F 9.1 °F 1029.0 in North 25.9 mph 25.9 mph 61 % 0.0 in 323.0 W/m2 CLR
15:00 16.7 °F 9.6 °F 1029.0 in North 22.5 mph 22.5 mph 63 % 0.0 in 309.0 W/m2 CLR
15:05 17.2 °F 10.1 °F 1029.0 in NNW 22.2 mph 22.2 mph 63 % 0.0 in 327.0 W/m2 CLR
15:10 17.2 °F 9.9 °F 1029.0 in NW 14.8 mph 14.8 mph 62 % 0.0 in 330.0 W/m2 CLR
15:15 17.2 °F 9.9 °F 1029.0 in NNW 20.4 mph 20.4 mph 62 % 0.0 in 325.0 W/m2 CLR
15:20 17.2 °F 10.1 °F 1028.7 in NNW 14.8 mph 14.8 mph 63 % 0.0 in 274.0 W/m2 CLR
15:25 17.2 °F 9.9 °F 1029.0 in NNW 18.5 mph 18.5 mph 62 % 0.0 in 241.0 W/m2 CLR
15:30 17.2 °F 9.9 °F 1028.7 in NW 22.2 mph 22.2 mph 62 % 0.0 in 378.0 W/m2 CLR
15:35 17.8 °F 10.4 °F 1028.7 in NNW 16.7 mph 16.7 mph 62 % 0.0 in 401.0 W/m2 CLR
15:40 17.8 °F 9.9 °F 1028.7 in NW 24.1 mph 24.1 mph 60 % 0.0 in 330.0 W/m2 CLR
15:45 17.8 °F 10.2 °F 1029.0 in NNW 20.4 mph 20.4 mph 61 % 0.0 in 352.0 W/m2 CLR
15:50 17.8 °F 9.9 °F 1029.0 in North 20.9 mph 20.9 mph 60 % 0.0 in 283.0 W/m2 CLR
15:55 17.8 °F 9.9 °F 1029.0 in NW 13.0 mph 13.0 mph 60 % 0.0 in 297.0 W/m2 CLR
16:05 17.2 °F 9.4 °F 1029.0 in NW 16.7 mph 16.7 mph 60 % 0.0 in 213.0 W/m2 CLR
16:07 17.2 °F 9.4 °F 1029.0 in North 20.4 mph 20.4 mph 60 % 0.0 in 221.0 W/m2 CLR
16:12 17.2 °F 9.4 °F 1029.0 in NW 20.4 mph 20.4 mph 60 % 0.0 in 216.0 W/m2 CLR
16:17 17.2 °F 9.6 °F 1029.0 in NNW 22.2 mph 22.2 mph 61 % 0.0 in 137.0 W/m2 CLR
16:27 16.7 °F 9.3 °F 1029.0 in NNW 11.1 mph 11.1 mph 62 % 0.0 in 169.0 W/m2 CLR
16:32 16.7 °F 9.1 °F 1029.0 in NNW 18.5 mph 18.5 mph 61 % 0.0 in 134.0 W/m2 CLR
16:37 16.7 °F 9.1 °F 1029.0 in NW 18.5 mph 18.5 mph 61 % 0.0 in 128.0 W/m2 CLR
16:42 16.7 °F 9.3 °F 1029.0 in NNW 13.0 mph 13.0 mph 62 % 0.0 in 127.0 W/m2 CLR
16:47 16.1 °F 8.6 °F 1029.0 in NNW 16.7 mph 16.7 mph 61 % 0.0 in 114.0 W/m2 CLR
16:52 16.1 °F 8.8 °F 1029.0 in NW 3.7 mph   62 % 0.0 in 105.0 W/m2 CLR
16:57 16.1 °F 8.8 °F 1029.0 in Calm     62 % 0.0 in 116.0 W/m2 CLR
17:02 16.1 °F 8.6 °F 1029.0 in NW 1.9 mph 1.9 mph 61 % 0.0 in 83.0 W/m2 CLR
17:07 16.1 °F 8.8 °F 1029.0 in NNW 1.9 mph 1.9 mph 62 % 0.0 in 98.0 W/m2 CLR
17:12 16.1 °F 8.8 °F 1029.0 in NNW 13.0 mph 13.0 mph 62 % 0.0 in 51.0 W/m2 SCT
17:17 15.6 °F 8.6 °F 1029.0 in North 3.7 mph 3.7 mph 63 % 0.0 in 60.0 W/m2 SCT
17:22 15.6 °F 8.6 °F 1029.0 in NNW 14.8 mph 14.8 mph 63 % 0.0 in 49.0 W/m2 SCT
17:33 15.0 °F 8.2 °F 1029.3 in NNW 1.9 mph 1.9 mph 64 % 0.0 in 32.0 W/m2 BKN
17:38 15.0 °F 8.2 °F 1029.3 in Calm     64 % 0.0 in 25.0 W/m2 BKN
17:43 15.0 °F 8.4 °F 1029.3 in Calm     65 % 0.0 in 18.0 W/m2 BKN
17:53 13.9 °F 7.6 °F 1029.3 in Calm     66 % 0.0 in 7.0 W/m2 BKN
17:58 13.3 °F 7.3 °F 1029.3 in Calm     67 % 0.0 in 5.0 W/m2 OVC
18:03 12.8 °F 6.8 °F 1029.3 in Calm     67 % 0.0 in 0.0 W/m2 OVC
18:13 12.2 °F 6.5 °F 1029.7 in Calm     68 % 0.0 in 0.0 W/m2 OVC
18:18 11.7 °F 6.2 °F 1029.7 in Calm     69 % 0.0 in 0.0 W/m2 CLR
18:23 11.1 °F 5.8 °F 1029.7 in Calm     70 % 0.0 in 0.0 W/m2 CLR
18:28 11.1 °F 5.8 °F 1029.7 in Calm     70 % 0.0 in 0.0 W/m2 CLR
18:33 11.1 °F 6.1 °F 1029.7 in Calm     71 % 0.0 in 0.0 W/m2 CLR
18:38 11.1 °F 6.4 °F 1030.0 in Calm     73 % 0.0 in 0.0 W/m2 CLR
18:43 11.1 °F 6.4 °F 1030.0 in Calm     73 % 0.0 in 0.0 W/m2 CLR
18:53 10.6 °F 6.1 °F 1030.4 in Calm     74 % 0.0 in 0.0 W/m2 CLR
18:58 10.6 °F 6.1 °F 1030.4 in Calm     74 % 0.0 in 0.0 W/m2 CLR
19:03 10.6 °F 6.3 °F 1030.4 in Calm     75 % 0.0 in 0.0 W/m2 CLR
19:08 10.0 °F 5.8 °F 1030.4 in Calm     75 % 0.0 in 0.0 W/m2 CLR
19:13 10.0 °F 5.9 °F 1030.4 in Calm     76 % 0.0 in 0.0 W/m2 CLR
19:18 10.0 °F 5.9 °F 1030.4 in Calm     76 % 0.0 in 0.0 W/m2 CLR
19:28 9.4 °F 5.6 °F 1030.4 in Calm     77 % 0.0 in 0.0 W/m2 CLR
19:33 9.4 °F 5.8 °F 1030.4 in Calm     78 % 0.0 in 0.0 W/m2 CLR
19:38 9.4 °F 6.0 °F 1030.7 in Calm     79 % 0.0 in 0.0 W/m2 CLR
19:43 9.4 °F 6.3 °F 1030.7 in Calm     81 % 0.0 in 0.0 W/m2 CLR
19:53 8.9 °F 5.6 °F 1030.7 in Calm     80 % 0.0 in 0.0 W/m2 CLR
19:58 8.3 °F 5.1 °F 1030.7 in Calm     80 % 0.0 in 0.0 W/m2 CLR
20:03 8.3 °F 5.3 °F 1030.7 in Calm     81 % 0.0 in 0.0 W/m2 CLR
20:08 8.3 °F 5.3 °F 1030.7 in Calm     81 % 0.0 in 0.0 W/m2 CLR
20:23 7.8 °F 4.9 °F 1031.0 in Calm     82 % 0.0 in 0.0 W/m2 CLR
20:34 7.2 °F 4.5 °F 1031.0 in Calm     83 % 0.0 in 0.0 W/m2 CLR
20:39 7.2 °F 4.7 °F 1031.0 in Calm     84 % 0.0 in 0.0 W/m2 CLR
20:49 7.8 °F 5.2 °F 1031.0 in Calm     84 % 0.0 in 0.0 W/m2 CLR
20:54 7.8 °F 5.2 °F 1031.0 in Calm     84 % 0.0 in 0.0 W/m2 CLR
20:59 7.2 °F 4.7 °F 1031.0 in Calm     84 % 0.0 in 0.0 W/m2 CLR
21:04 6.7 °F 4.3 °F 1031.0 in Calm     85 % 0.0 in 0.0 W/m2 CLR
21:09 6.7 °F 4.3 °F 1031.0 in Calm     85 % 0.0 in 0.0 W/m2 CLR
21:14 6.7 °F 4.5 °F 1031.0 in Calm     86 % 0.0 in 0.0 W/m2 CLR
21:19 6.7 °F 4.5 °F 1031.0 in Calm     86 % 0.0 in 0.0 W/m2 CLR
21:24 6.7 °F 4.5 °F 1031.0 in Calm     86 % 0.0 in 0.0 W/m2 CLR
21:29 6.7 °F 4.5 °F 1031.0 in Calm     86 % 0.0 in 0.0 W/m2 CLR
21:34 6.7 °F 4.5 °F 1031.0 in Calm     86 % 0.0 in 0.0 W/m2 CLR
21:39 6.1 °F 3.9 °F 1031.0 in Calm     86 % 0.0 in 0.0 W/m2 CLR
21:54 6.1 °F 4.1 °F 1031.4 in Calm     87 % 0.0 in 0.0 W/m2 CLR
21:59 6.1 °F 4.1 °F 1031.4 in Calm     87 % 0.0 in 0.0 W/m2 CLR
22:04 6.1 °F 4.1 °F 1031.4 in Calm     87 % 0.0 in 0.0 W/m2 CLR
22:09 6.1 °F 4.1 °F 1031.4 in Calm     87 % 0.0 in 0.0 W/m2 CLR
22:14 5.6 °F 3.6 °F 1031.4 in Calm     87 % 0.0 in 0.0 W/m2 CLR
22:19 6.1 °F 4.1 °F 1031.4 in Calm     87 % 0.0 in 0.0 W/m2 CLR
22:24 6.1 °F 4.3 °F 1031.4 in Calm     88 % 0.0 in 0.0 W/m2 CLR
22:29 6.1 °F 4.3 °F 1031.4 in Calm     88 % 0.0 in 0.0 W/m2 CLR
22:39 5.6 °F 3.7 °F 1031.4 in Calm     88 % 0.0 in 0.0 W/m2 CLR
22:44 5.6 °F 3.7 °F 1031.4 in Calm     88 % 0.0 in 0.0 W/m2 CLR
22:49 5.6 °F 3.7 °F 1031.4 in Calm     88 % 0.0 in 0.0 W/m2 CLR
23:05 5.0 °F 3.3 °F 1031.4 in Calm     89 % 0.0 in 0.0 W/m2 CLR
23:10 5.0 °F 3.3 °F 1031.4 in Calm     89 % 0.0 in 0.0 W/m2 CLR
23:12 5.0 °F 3.3 °F 1031.7 in Calm     89 % 0.0 in 0.0 W/m2 CLR
23:17 5.0 °F 3.3 °F 1031.4 in Calm     89 % 0.0 in 0.0 W/m2 CLR
23:22 5.0 °F 3.3 °F 1031.7 in Calm     89 % 0.0 in 0.0 W/m2 CLR
23:27 5.0 °F 3.3 °F 1031.7 in Calm     89 % 0.0 in 0.0 W/m2 CLR
23:32 5.0 °F 3.3 °F 1031.7 in Calm     89 % 0.0 in 0.0 W/m2 CLR
23:37 4.4 °F 2.8 °F 1031.7 in Calm     89 % 0.0 in 0.0 W/m2 CLR
23:42 4.4 °F 2.9 °F 1031.7 in Calm     90 % 0.0 in 0.0 W/m2 CLR
23:47 4.4 °F 2.8 °F 1031.7 in Calm     89 % 0.0 in 0.0 W/m2 CLR
23:52 4.4 °F 2.9 °F 1031.7 in Calm     90 % 0.0 in 0.0 W/m2 CLR
23:57 4.4 °F 2.9 °F 1031.7 in Calm     90 % 0.0 in 0.0 W/m2 CLR
Lo Temps de Massalio
Compliments of Weather Underground - 1 mb